sensor_id;sensor_type;location;lat;lon;timestamp;pressure;altitude;pressure_sealevel;temperature;humidity
8758;BME280;4415;42.152;24.744;2023-12-20T00:02:18;99926.53;;;5.49;100.00
8758;BME280;4415;42.152;24.744;2023-12-20T00:04:43;99924.53;;;5.39;100.00
8758;BME280;4415;42.152;24.744;2023-12-20T00:07:09;99923.44;;;5.19;100.00
8758;BME280;4415;42.152;24.744;2023-12-20T00:09:34;99921.59;;;5.41;100.00
8758;BME280;4415;42.152;24.744;2023-12-20T00:12:00;99907.31;;;5.35;100.00
8758;BME280;4415;42.152;24.744;2023-12-20T00:14:25;99913.47;;;5.53;100.00
8758;BME280;4415;42.152;24.744;2023-12-20T00:16:50;99910.22;;;5.50;100.00
8758;BME280;4415;42.152;24.744;2023-12-20T00:19:16;99913.97;;;5.49;100.00
8758;BME280;4415;42.152;24.744;2023-12-20T00:21:41;99918.00;;;5.52;100.00
8758;BME280;4415;42.152;24.744;2023-12-20T00:24:07;99916.50;;;5.39;100.00
8758;BME280;4415;42.152;24.744;2023-12-20T00:26:32;99919.34;;;5.33;100.00
8758;BME280;4415;42.152;24.744;2023-12-20T00:28:58;99919.81;;;5.30;100.00
8758;BME280;4415;42.152;24.744;2023-12-20T00:31:23;99914.31;;;5.20;100.00
8758;BME280;4415;42.152;24.744;2023-12-20T00:33:48;99917.06;;;5.25;100.00
8758;BME280;4415;42.152;24.744;2023-12-20T00:36:14;99902.38;;;5.27;100.00
8758;BME280;4415;42.152;24.744;2023-12-20T00:38:39;99893.84;;;5.30;100.00
8758;BME280;4415;42.152;24.744;2023-12-20T00:41:05;99858.41;;;5.07;100.00
8758;BME280;4415;42.152;24.744;2023-12-20T00:43:30;99881.34;;;5.36;100.00
8758;BME280;4415;42.152;24.744;2023-12-20T00:45:55;99882.50;;;5.40;100.00
8758;BME280;4415;42.152;24.744;2023-12-20T00:48:21;99887.31;;;5.43;100.00
8758;BME280;4415;42.152;24.744;2023-12-20T00:50:46;99859.41;;;5.39;100.00
8758;BME280;4415;42.152;24.744;2023-12-20T00:53:12;99853.66;;;5.30;100.00
8758;BME280;4415;42.152;24.744;2023-12-20T00:55:37;99865.28;;;5.36;100.00
8758;BME280;4415;42.152;24.744;2023-12-20T00:58:02;99875.00;;;5.42;100.00
8758;BME280;4415;42.152;24.744;2023-12-20T01:00:28;99866.63;;;5.38;100.00
8758;BME280;4415;42.152;24.744;2023-12-20T01:02:53;99860.25;;;5.23;100.00
8758;BME280;4415;42.152;24.744;2023-12-20T01:05:19;99855.59;;;5.13;100.00
8758;BME280;4415;42.152;24.744;2023-12-20T01:07:44;99840.31;;;5.14;100.00
8758;BME280;4415;42.152;24.744;2023-12-20T01:10:10;99854.97;;;5.28;100.00
8758;BME280;4415;42.152;24.744;2023-12-20T01:12:36;99843.16;;;5.07;100.00
8758;BME280;4415;42.152;24.744;2023-12-20T01:15:01;99835.47;;;4.94;100.00
8758;BME280;4415;42.152;24.744;2023-12-20T01:17:27;99815.38;;;4.75;100.00
8758;BME280;4415;42.152;24.744;2023-12-20T01:19:52;99830.06;;;4.89;100.00
8758;BME280;4415;42.152;24.744;2023-12-20T01:22:18;99829.78;;;4.90;100.00
8758;BME280;4415;42.152;24.744;2023-12-20T01:24:44;99808.72;;;4.77;100.00
8758;BME280;4415;42.152;24.744;2023-12-20T01:27:09;99819.28;;;4.67;100.00
8758;BME280;4415;42.152;24.744;2023-12-20T01:29:35;99833.06;;;4.76;100.00
8758;BME280;4415;42.152;24.744;2023-12-20T01:32:00;99822.34;;;4.59;100.00
8758;BME280;4415;42.152;24.744;2023-12-20T01:34:25;99825.09;;;4.48;100.00
8758;BME280;4415;42.152;24.744;2023-12-20T01:36:51;99821.72;;;4.52;100.00
8758;BME280;4415;42.152;24.744;2023-12-20T01:39:17;99826.31;;;4.57;100.00
8758;BME280;4415;42.152;24.744;2023-12-20T01:41:42;99817.63;;;4.33;100.00
8758;BME280;4415;42.152;24.744;2023-12-20T01:44:08;99826.56;;;4.39;100.00
8758;BME280;4415;42.152;24.744;2023-12-20T01:46:33;99816.41;;;4.24;100.00
8758;BME280;4415;42.152;24.744;2023-12-20T01:48:59;99818.16;;;4.18;100.00
8758;BME280;4415;42.152;24.744;2023-12-20T01:51:25;99795.72;;;4.19;100.00
8758;BME280;4415;42.152;24.744;2023-12-20T01:53:52;99815.47;;;4.02;100.00
8758;BME280;4415;42.152;24.744;2023-12-20T01:56:19;99799.53;;;3.79;100.00
8758;BME280;4415;42.152;24.744;2023-12-20T01:58:46;99809.00;;;3.70;100.00
8758;BME280;4415;42.152;24.744;2023-12-20T02:01:12;99800.34;;;3.79;100.00
8758;BME280;4415;42.152;24.744;2023-12-20T02:03:40;99805.56;;;3.86;100.00
8758;BME280;4415;42.152;24.744;2023-12-20T02:06:07;99764.22;;;3.77;100.00
8758;BME280;4415;42.152;24.744;2023-12-20T02:08:33;99782.69;;;3.78;100.00
8758;BME280;4415;42.152;24.744;2023-12-20T02:10:59;99774.22;;;3.41;100.00
8758;BME280;4415;42.152;24.744;2023-12-20T02:13:25;99755.16;;;3.49;100.00
8758;BME280;4415;42.152;24.744;2023-12-20T02:15:52;99776.41;;;3.73;100.00
8758;BME280;4415;42.152;24.744;2023-12-20T02:18:17;99753.06;;;3.80;100.00
8758;BME280;4415;42.152;24.744;2023-12-20T02:20:42;99765.16;;;3.71;100.00
8758;BME280;4415;42.152;24.744;2023-12-20T02:23:08;99771.00;;;3.67;100.00
8758;BME280;4415;42.152;24.744;2023-12-20T02:25:33;99749.47;;;3.74;100.00
8758;BME280;4415;42.152;24.744;2023-12-20T02:27:59;99775.94;;;3.76;100.00
8758;BME280;4415;42.152;24.744;2023-12-20T02:30:24;99740.19;;;3.48;100.00
8758;BME280;4415;42.152;24.744;2023-12-20T02:32:50;99764.66;;;3.85;100.00
8758;BME280;4415;42.152;24.744;2023-12-20T02:35:15;99769.34;;;3.95;100.00
8758;BME280;4415;42.152;24.744;2023-12-20T02:37:40;99742.97;;;3.70;100.00
8758;BME280;4415;42.152;24.744;2023-12-20T02:40:06;99751.13;;;3.92;100.00
8758;BME280;4415;42.152;24.744;2023-12-20T02:42:32;99755.66;;;3.91;100.00
8758;BME280;4415;42.152;24.744;2023-12-20T02:44:57;99734.91;;;3.82;100.00
8758;BME280;4415;42.152;24.744;2023-12-20T02:47:23;99732.16;;;3.77;100.00
8758;BME280;4415;42.152;24.744;2023-12-20T02:49:48;99754.19;;;3.84;100.00
8758;BME280;4415;42.152;24.744;2023-12-20T02:52:14;99746.03;;;3.90;100.00
8758;BME280;4415;42.152;24.744;2023-12-20T02:54:39;99744.34;;;4.01;100.00
8758;BME280;4415;42.152;24.744;2023-12-20T02:57:05;99738.53;;;4.04;100.00
8758;BME280;4415;42.152;24.744;2023-12-20T02:59:31;99738.13;;;4.12;100.00
8758;BME280;4415;42.152;24.744;2023-12-20T03:01:57;99727.34;;;4.07;100.00
8758;BME280;4415;42.152;24.744;2023-12-20T03:04:22;99730.66;;;4.14;100.00
8758;BME280;4415;42.152;24.744;2023-12-20T03:06:47;99741.28;;;4.09;100.00
8758;BME280;4415;42.152;24.744;2023-12-20T03:09:13;99735.94;;;4.09;100.00
8758;BME280;4415;42.152;24.744;2023-12-20T03:11:38;99710.00;;;3.93;100.00
8758;BME280;4415;42.152;24.744;2023-12-20T03:14:04;99728.31;;;4.01;100.00
8758;BME280;4415;42.152;24.744;2023-12-20T03:16:29;99735.78;;;3.99;100.00
8758;BME280;4415;42.152;24.744;2023-12-20T03:18:56;99703.97;;;3.69;100.00
8758;BME280;4415;42.152;24.744;2023-12-20T03:21:21;99732.63;;;3.74;100.00
8758;BME280;4415;42.152;24.744;2023-12-20T03:23:47;99721.59;;;3.70;100.00
8758;BME280;4415;42.152;24.744;2023-12-20T03:26:13;99725.00;;;3.65;100.00
8758;BME280;4415;42.152;24.744;2023-12-20T03:28:39;99725.19;;;3.76;100.00
8758;BME280;4415;42.152;24.744;2023-12-20T03:31:04;99709.44;;;3.62;100.00
8758;BME280;4415;42.152;24.744;2023-12-20T03:33:30;99707.63;;;3.51;100.00
8758;BME280;4415;42.152;24.744;2023-12-20T03:35:55;99720.72;;;3.64;100.00
8758;BME280;4415;42.152;24.744;2023-12-20T03:38:21;99707.84;;;3.61;100.00
8758;BME280;4415;42.152;24.744;2023-12-20T03:40:49;99693.25;;;3.52;100.00
8758;BME280;4415;42.152;24.744;2023-12-20T03:43:14;99707.38;;;3.81;100.00
8758;BME280;4415;42.152;24.744;2023-12-20T03:45:40;99689.53;;;3.70;100.00
8758;BME280;4415;42.152;24.744;2023-12-20T03:48:05;99688.06;;;3.62;100.00
8758;BME280;4415;42.152;24.744;2023-12-20T03:50:31;99707.38;;;3.64;100.00
8758;BME280;4415;42.152;24.744;2023-12-20T03:52:56;99707.47;;;3.70;100.00
8758;BME280;4415;42.152;24.744;2023-12-20T03:55:22;99703.72;;;3.71;100.00
8758;BME280;4415;42.152;24.744;2023-12-20T03:57:47;99695.69;;;3.54;100.00
8758;BME280;4415;42.152;24.744;2023-12-20T04:00:13;99703.63;;;3.65;100.00
8758;BME280;4415;42.152;24.744;2023-12-20T04:02:39;99708.50;;;3.68;100.00
8758;BME280;4415;42.152;24.744;2023-12-20T04:05:05;99722.91;;;3.67;100.00
8758;BME280;4415;42.152;24.744;2023-12-20T04:07:31;99701.91;;;3.59;100.00
8758;BME280;4415;42.152;24.744;2023-12-20T04:09:57;99706.66;;;3.69;100.00
8758;BME280;4415;42.152;24.744;2023-12-20T04:12:22;99693.41;;;3.62;100.00
8758;BME280;4415;42.152;24.744;2023-12-20T04:14:47;99696.44;;;3.66;100.00
8758;BME280;4415;42.152;24.744;2023-12-20T04:17:13;99702.03;;;3.64;100.00
8758;BME280;4415;42.152;24.744;2023-12-20T04:19:38;99704.69;;;3.64;100.00
8758;BME280;4415;42.152;24.744;2023-12-20T04:22:04;99685.50;;;3.51;100.00
8758;BME280;4415;42.152;24.744;2023-12-20T04:24:29;99697.78;;;3.52;100.00
8758;BME280;4415;42.152;24.744;2023-12-20T04:26:55;99698.53;;;3.64;100.00
8758;BME280;4415;42.152;24.744;2023-12-20T04:29:20;99680.47;;;3.54;100.00
8758;BME280;4415;42.152;24.744;2023-12-20T04:31:45;99693.34;;;3.57;100.00
8758;BME280;4415;42.152;24.744;2023-12-20T04:34:11;99705.84;;;3.68;100.00
8758;BME280;4415;42.152;24.744;2023-12-20T04:36:36;99699.63;;;3.80;100.00
8758;BME280;4415;42.152;24.744;2023-12-20T04:39:02;99698.63;;;3.69;100.00
8758;BME280;4415;42.152;24.744;2023-12-20T04:41:28;99689.88;;;3.74;100.00
8758;BME280;4415;42.152;24.744;2023-12-20T04:43:53;99687.59;;;3.65;100.00
8758;BME280;4415;42.152;24.744;2023-12-20T04:46:19;99681.78;;;3.68;100.00
8758;BME280;4415;42.152;24.744;2023-12-20T04:48:44;99688.25;;;3.73;100.00
8758;BME280;4415;42.152;24.744;2023-12-20T04:51:09;99679.84;;;3.81;100.00
8758;BME280;4415;42.152;24.744;2023-12-20T04:53:35;99671.19;;;3.74;100.00
8758;BME280;4415;42.152;24.744;2023-12-20T04:56:00;99682.91;;;3.73;100.00
8758;BME280;4415;42.152;24.744;2023-12-20T04:58:26;99679.13;;;3.68;100.00
8758;BME280;4415;42.152;24.744;2023-12-20T05:00:51;99672.69;;;3.53;100.00
8758;BME280;4415;42.152;24.744;2023-12-20T05:03:16;99651.56;;;3.51;100.00
8758;BME280;4415;42.152;24.744;2023-12-20T05:05:42;99672.69;;;3.53;100.00
8758;BME280;4415;42.152;24.744;2023-12-20T05:08:07;99667.19;;;3.59;100.00
8758;BME280;4415;42.152;24.744;2023-12-20T05:10:32;99662.22;;;3.51;100.00
8758;BME280;4415;42.152;24.744;2023-12-20T05:12:58;99660.69;;;3.39;100.00
8758;BME280;4415;42.152;24.744;2023-12-20T05:15:23;99637.19;;;3.24;100.00
8758;BME280;4415;42.152;24.744;2023-12-20T05:17:49;99654.72;;;3.20;100.00
8758;BME280;4415;42.152;24.744;2023-12-20T05:20:14;99650.72;;;3.06;100.00
8758;BME280;4415;42.152;24.744;2023-12-20T05:22:41;99657.94;;;3.22;100.00
8758;BME280;4415;42.152;24.744;2023-12-20T05:25:06;99655.28;;;3.22;100.00
8758;BME280;4415;42.152;24.744;2023-12-20T05:27:32;99654.16;;;3.18;100.00
8758;BME280;4415;42.152;24.744;2023-12-20T05:29:57;99645.19;;;3.24;100.00
8758;BME280;4415;42.152;24.744;2023-12-20T05:32:23;99645.97;;;3.08;100.00
8758;BME280;4415;42.152;24.744;2023-12-20T05:34:48;99649.06;;;3.17;100.00
8758;BME280;4415;42.152;24.744;2023-12-20T05:37:14;99636.97;;;3.14;100.00
8758;BME280;4415;42.152;24.744;2023-12-20T05:39:39;99631.59;;;3.26;100.00
8758;BME280;4415;42.152;24.744;2023-12-20T05:42:05;99634.22;;;3.37;100.00
8758;BME280;4415;42.152;24.744;2023-12-20T05:44:30;99611.28;;;3.25;100.00
8758;BME280;4415;42.152;24.744;2023-12-20T05:46:55;99629.09;;;3.19;100.00
8758;BME280;4415;42.152;24.744;2023-12-20T05:49:21;99626.03;;;2.99;100.00
8758;BME280;4415;42.152;24.744;2023-12-20T05:51:47;99624.34;;;3.10;100.00
8758;BME280;4415;42.152;24.744;2023-12-20T05:54:12;99629.75;;;3.26;100.00
8758;BME280;4415;42.152;24.744;2023-12-20T05:56:38;99629.38;;;3.06;100.00
8758;BME280;4415;42.152;24.744;2023-12-20T05:59:03;99621.84;;;3.03;100.00
8758;BME280;4415;42.152;24.744;2023-12-20T06:01:29;99619.06;;;3.26;100.00
8758;BME280;4415;42.152;24.744;2023-12-20T06:03:54;99616.53;;;3.64;100.00
8758;BME280;4415;42.152;24.744;2023-12-20T06:06:20;99610.28;;;4.47;100.00
8758;BME280;4415;42.152;24.744;2023-12-20T06:08:45;99609.41;;;5.60;100.00
8758;BME280;4415;42.152;24.744;2023-12-20T06:11:10;99590.63;;;6.29;100.00
8758;BME280;4415;42.152;24.744;2023-12-20T06:13:36;99600.66;;;7.25;100.00
8758;BME280;4415;42.152;24.744;2023-12-20T06:16:02;99615.66;;;7.01;93.90
8758;BME280;4415;42.152;24.744;2023-12-20T06:18:28;99618.47;;;7.97;88.90
8758;BME280;4415;42.152;24.744;2023-12-20T06:20:54;99620.06;;;9.07;83.84
8758;BME280;4415;42.152;24.744;2023-12-20T06:23:20;99618.28;;;10.09;78.80
8758;BME280;4415;42.152;24.744;2023-12-20T06:25:45;99617.00;;;10.59;70.84
8758;BME280;4415;42.152;24.744;2023-12-20T06:28:11;99586.31;;;11.72;67.61
8758;BME280;4415;42.152;24.744;2023-12-20T06:30:39;99609.97;;;12.86;61.69
8758;BME280;4415;42.152;24.744;2023-12-20T06:33:04;99603.16;;;13.51;56.78
8758;BME280;4415;42.152;24.744;2023-12-20T06:35:31;99612.59;;;12.91;56.73
8758;BME280;4415;42.152;24.744;2023-12-20T06:37:57;99610.16;;;14.10;53.58
8758;BME280;4415;42.152;24.744;2023-12-20T06:40:22;99599.75;;;16.07;48.29
8758;BME280;4415;42.152;24.744;2023-12-20T06:42:48;99583.72;;;17.69;43.73
8758;BME280;4415;42.152;24.744;2023-12-20T06:45:13;99595.38;;;18.80;39.76
8758;BME280;4415;42.152;24.744;2023-12-20T06:47:39;99590.19;;;17.35;42.97
8758;BME280;4415;42.152;24.744;2023-12-20T06:50:05;99594.78;;;17.23;42.54
8758;BME280;4415;42.152;24.744;2023-12-20T06:52:30;99609.13;;;15.07;46.69
8758;BME280;4415;42.152;24.744;2023-12-20T06:54:56;99593.97;;;15.23;47.02
8758;BME280;4415;42.152;24.744;2023-12-20T06:57:21;99580.69;;;16.07;43.91
8758;BME280;4415;42.152;24.744;2023-12-20T06:59:47;99593.66;;;15.42;45.75
8758;BME280;4415;42.152;24.744;2023-12-20T07:02:12;99593.34;;;15.95;45.57
8758;BME280;4415;42.152;24.744;2023-12-20T07:04:41;99599.72;;;16.24;46.02
8758;BME280;4415;42.152;24.744;2023-12-20T07:07:07;99578.25;;;17.19;41.50
8758;BME280;4415;42.152;24.744;2023-12-20T07:09:33;99582.94;;;17.81;40.96
8758;BME280;4415;42.152;24.744;2023-12-20T07:11:58;99583.81;;;17.93;41.11
8758;BME280;4415;42.152;24.744;2023-12-20T07:14:24;99561.66;;;19.80;36.78
8758;BME280;4415;42.152;24.744;2023-12-20T07:16:50;99566.59;;;22.04;33.66
8758;BME280;4415;42.152;24.744;2023-12-20T07:19:15;99558.56;;;21.76;32.20
8758;BME280;4415;42.152;24.744;2023-12-20T07:21:41;99518.13;;;21.57;32.71
8758;BME280;4415;42.152;24.744;2023-12-20T07:24:07;99554.91;;;22.75;30.62
8758;BME280;4415;42.152;24.744;2023-12-20T07:26:32;99556.28;;;21.97;31.79
8758;BME280;4415;42.152;24.744;2023-12-20T07:28:59;99570.81;;;20.00;34.93
8758;BME280;4415;42.152;24.744;2023-12-20T07:31:24;99551.34;;;22.29;32.11
8758;BME280;4415;42.152;24.744;2023-12-20T07:33:49;99546.59;;;24.20;29.56
8758;BME280;4415;42.152;24.744;2023-12-20T07:36:15;99534.78;;;22.48;30.35
8758;BME280;4415;42.152;24.744;2023-12-20T07:38:40;99544.31;;;23.03;29.80
8758;BME280;4415;42.152;24.744;2023-12-20T07:41:09;99544.00;;;24.01;28.80
8758;BME280;4415;42.152;24.744;2023-12-20T07:43:35;99539.75;;;25.67;27.75
8758;BME280;4415;42.152;24.744;2023-12-20T07:46:05;99539.78;;;25.77;26.84
8758;BME280;4415;42.152;24.744;2023-12-20T07:48:30;99537.34;;;25.55;26.27
8758;BME280;4415;42.152;24.744;2023-12-20T07:50:55;99539.91;;;23.55;28.14
8758;BME280;4415;42.152;24.744;2023-12-20T07:53:21;99537.09;;;23.51;28.92
8758;BME280;4415;42.152;24.744;2023-12-20T07:55:46;99545.81;;;22.52;29.74
8758;BME280;4415;42.152;24.744;2023-12-20T07:58:12;99539.00;;;24.54;27.21
8758;BME280;4415;42.152;24.744;2023-12-20T08:00:37;99531.22;;;25.24;26.68
8758;BME280;4415;42.152;24.744;2023-12-20T08:03:03;99525.34;;;25.37;25.71
8758;BME280;4415;42.152;24.744;2023-12-20T08:05:28;99541.50;;;22.05;29.23
8758;BME280;4415;42.152;24.744;2023-12-20T08:07:54;99547.47;;;18.98;33.91
8758;BME280;4415;42.152;24.744;2023-12-20T08:10:19;99553.56;;;16.02;40.20
8758;BME280;4415;42.152;24.744;2023-12-20T08:12:45;99545.84;;;13.97;47.38
8758;BME280;4415;42.152;24.744;2023-12-20T08:15:10;99561.78;;;12.69;53.71
8758;BME280;4415;42.152;24.744;2023-12-20T08:17:36;99551.59;;;13.02;53.23
8758;BME280;4415;42.152;24.744;2023-12-20T08:20:01;99553.13;;;12.81;53.96
8758;BME280;4415;42.152;24.744;2023-12-20T08:22:26;99553.94;;;13.08;53.36
8758;BME280;4415;42.152;24.744;2023-12-20T08:24:52;99552.13;;;13.84;51.57
8758;BME280;4415;42.152;24.744;2023-12-20T08:27:17;99523.88;;;13.18;52.35
8758;BME280;4415;42.152;24.744;2023-12-20T08:29:46;99534.03;;;14.32;50.83
8758;BME280;4415;42.152;24.744;2023-12-20T08:32:11;99537.63;;;15.49;46.48
8758;BME280;4415;42.152;24.744;2023-12-20T08:34:37;99526.56;;;15.54;45.98
8758;BME280;4415;42.152;24.744;2023-12-20T08:37:03;99482.44;;;16.33;44.29
8758;BME280;4415;42.152;24.744;2023-12-20T08:39:28;99508.25;;;16.73;43.28
8758;BME280;4415;42.152;24.744;2023-12-20T08:41:55;99500.22;;;17.60;41.07
8758;BME280;4415;42.152;24.744;2023-12-20T08:44:20;99474.50;;;18.66;38.83
8758;BME280;4415;42.152;24.744;2023-12-20T08:46:47;99496.94;;;16.83;41.94
8758;BME280;4415;42.152;24.744;2023-12-20T08:49:13;99487.28;;;14.52;49.73
8758;BME280;4415;42.152;24.744;2023-12-20T08:51:39;99502.47;;;11.67;60.53
8758;BME280;4415;42.152;24.744;2023-12-20T08:54:06;99503.16;;;11.08;64.95
8758;BME280;4415;42.152;24.744;2023-12-20T08:56:33;99494.75;;;10.72;67.78
8758;BME280;4415;42.152;24.744;2023-12-20T08:58:59;99481.28;;;10.67;69.24
8758;BME280;4415;42.152;24.744;2023-12-20T09:01:25;99478.22;;;11.62;65.18
8758;BME280;4415;42.152;24.744;2023-12-20T09:03:50;99461.66;;;12.37;61.56
8758;BME280;4415;42.152;24.744;2023-12-20T09:06:16;99468.81;;;12.82;59.76
8758;BME280;4415;42.152;24.744;2023-12-20T09:08:41;99459.50;;;13.10;58.46
8758;BME280;4415;42.152;24.744;2023-12-20T09:11:07;99445.22;;;13.05;59.81
8758;BME280;4415;42.152;24.744;2023-12-20T09:13:32;99443.59;;;14.01;55.19
8758;BME280;4415;42.152;24.744;2023-12-20T09:15:58;99435.63;;;14.70;52.82
8758;BME280;4415;42.152;24.744;2023-12-20T09:18:24;99424.31;;;15.83;47.74
8758;BME280;4415;42.152;24.744;2023-12-20T09:20:49;99416.78;;;17.09;45.74
8758;BME280;4415;42.152;24.744;2023-12-20T09:23:15;99419.28;;;17.55;43.15
8758;BME280;4415;42.152;24.744;2023-12-20T09:25:40;99407.97;;;16.70;46.39
8758;BME280;4415;42.152;24.744;2023-12-20T09:28:06;99407.06;;;18.09;42.31
8758;BME280;4415;42.152;24.744;2023-12-20T09:30:31;99399.81;;;17.56;42.57
8758;BME280;4415;42.152;24.744;2023-12-20T09:32:57;99395.78;;;17.99;41.86
8758;BME280;4415;42.152;24.744;2023-12-20T09:35:23;99379.91;;;17.68;41.74
8758;BME280;4415;42.152;24.744;2023-12-20T09:37:48;99404.28;;;14.98;47.98
8758;BME280;4415;42.152;24.744;2023-12-20T09:40:14;99384.63;;;14.58;49.87
8758;BME280;4415;42.152;24.744;2023-12-20T09:45:20;99378.19;;;16.65;46.30
8758;BME280;4415;42.152;24.744;2023-12-20T09:47:46;99370.06;;;16.27;46.35
8758;BME280;4415;42.152;24.744;2023-12-20T09:50:12;99366.19;;;16.78;44.97
8758;BME280;4415;42.152;24.744;2023-12-20T09:52:39;99353.97;;;17.98;42.68
8758;BME280;4415;42.152;24.744;2023-12-20T09:55:06;99354.97;;;17.25;42.79
8758;BME280;4415;42.152;24.744;2023-12-20T09:57:33;99352.66;;;17.03;44.65
8758;BME280;4415;42.152;24.744;2023-12-20T09:59:58;99344.63;;;17.63;41.99
8758;BME280;4415;42.152;24.744;2023-12-20T10:02:25;99340.19;;;17.83;41.80
8758;BME280;4415;42.152;24.744;2023-12-20T10:04:54;99342.28;;;18.62;38.86
8758;BME280;4415;42.152;24.744;2023-12-20T10:07:19;99332.38;;;17.36;41.18
8758;BME280;4415;42.152;24.744;2023-12-20T10:09:47;99328.38;;;17.22;41.38
8758;BME280;4415;42.152;24.744;2023-12-20T10:12:13;99327.91;;;16.46;43.58
8758;BME280;4415;42.152;24.744;2023-12-20T10:14:39;99319.22;;;17.06;42.14
8758;BME280;4415;42.152;24.744;2023-12-20T10:17:06;99325.88;;;17.41;41.02
8758;BME280;4415;42.152;24.744;2023-12-20T10:19:32;99318.34;;;17.14;41.40
8758;BME280;4415;42.152;24.744;2023-12-20T10:22:04;99303.75;;;16.98;42.03
8758;BME280;4415;42.152;24.744;2023-12-20T10:24:29;99302.59;;;16.98;43.02
8758;BME280;4415;42.152;24.744;2023-12-20T10:27:05;99291.78;;;17.83;41.26
8758;BME280;4415;42.152;24.744;2023-12-20T10:29:36;99299.63;;;16.91;42.44
8758;BME280;4415;42.152;24.744;2023-12-20T10:32:25;99298.22;;;16.03;44.02
8758;BME280;4415;42.152;24.744;2023-12-20T10:34:52;99286.22;;;15.74;45.26
8758;BME280;4415;42.152;24.744;2023-12-20T10:37:17;99293.34;;;15.12;48.14
8758;BME280;4415;42.152;24.744;2023-12-20T10:39:43;99291.22;;;15.26;48.39
8758;BME280;4415;42.152;24.744;2023-12-20T10:42:14;99279.81;;;14.95;49.66
8758;BME280;4415;42.152;24.744;2023-12-20T10:44:41;99275.31;;;14.90;50.35
8758;BME280;4415;42.152;24.744;2023-12-20T10:47:09;99255.66;;;15.31;49.23
8758;BME280;4415;42.152;24.744;2023-12-20T10:49:36;99256.44;;;14.94;50.29
8758;BME280;4415;42.152;24.744;2023-12-20T10:52:02;99258.88;;;14.01;52.39
8758;BME280;4415;42.152;24.744;2023-12-20T10:54:29;99248.19;;;14.30;52.49
8758;BME280;4415;42.152;24.744;2023-12-20T10:56:57;99247.19;;;14.78;48.99
8758;BME280;4415;42.152;24.744;2023-12-20T10:59:24;99236.72;;;15.05;47.68
8758;BME280;4415;42.152;24.744;2023-12-20T11:01:50;99231.66;;;15.62;47.02
8758;BME280;4415;42.152;24.744;2023-12-20T11:04:23;99231.47;;;15.00;49.19
8758;BME280;4415;42.152;24.744;2023-12-20T11:07:08;99222.63;;;15.41;46.94
8758;BME280;4415;42.152;24.744;2023-12-20T11:09:41;99227.09;;;15.16;46.54
8758;BME280;4415;42.152;24.744;2023-12-20T11:15:06;99202.19;;;15.64;45.13
8758;BME280;4415;42.152;24.744;2023-12-20T11:17:33;99208.22;;;14.56;48.10
8758;BME280;4415;42.152;24.744;2023-12-20T11:22:25;99211.75;;;14.48;48.86
8758;BME280;4415;42.152;24.744;2023-12-20T11:24:52;99201.69;;;14.32;49.60
8758;BME280;4415;42.152;24.744;2023-12-20T11:27:19;99205.00;;;13.52;51.48
8758;BME280;4415;42.152;24.744;2023-12-20T11:29:52;99192.38;;;13.39;52.21
8758;BME280;4415;42.152;24.744;2023-12-20T11:34:54;99186.56;;;13.23;53.60
8758;BME280;4415;42.152;24.744;2023-12-20T11:37:20;99184.88;;;13.05;54.54
8758;BME280;4415;42.152;24.744;2023-12-20T11:39:55;99182.59;;;12.90;54.59
8758;BME280;4415;42.152;24.744;2023-12-20T11:42:24;99168.38;;;12.84;55.13
8758;BME280;4415;42.152;24.744;2023-12-20T11:44:50;99173.03;;;12.92;55.41
8758;BME280;4415;42.152;24.744;2023-12-20T11:47:15;99172.78;;;12.71;56.14
8758;BME280;4415;42.152;24.744;2023-12-20T11:49:44;99167.19;;;12.68;55.77
8758;BME280;4415;42.152;24.744;2023-12-20T11:52:12;99168.47;;;12.70;56.79
8758;BME280;4415;42.152;24.744;2023-12-20T11:54:38;99157.91;;;13.00;55.71
8758;BME280;4415;42.152;24.744;2023-12-20T11:57:05;99155.78;;;12.88;55.23
8758;BME280;4415;42.152;24.744;2023-12-20T11:59:31;99139.19;;;13.38;54.65
8758;BME280;4415;42.152;24.744;2023-12-20T12:01:56;99129.59;;;13.31;54.28
8758;BME280;4415;42.152;24.744;2023-12-20T12:04:26;99139.19;;;13.29;54.88
8758;BME280;4415;42.152;24.744;2023-12-20T12:06:52;99133.44;;;13.22;54.89
8758;BME280;4415;42.152;24.744;2023-12-20T12:09:17;99103.28;;;13.32;54.47
8758;BME280;4415;42.152;24.744;2023-12-20T12:11:43;99106.94;;;12.71;55.74
8758;BME280;4415;42.152;24.744;2023-12-20T12:14:08;99107.25;;;12.39;57.31
8758;BME280;4415;42.152;24.744;2023-12-20T12:16:34;99117.44;;;12.72;57.20
8758;BME280;4415;42.152;24.744;2023-12-20T12:19:00;99110.84;;;12.56;58.54
8758;BME280;4415;42.152;24.744;2023-12-20T12:21:25;99111.41;;;12.75;58.96
8758;BME280;4415;42.152;24.744;2023-12-20T12:23:51;99113.97;;;12.81;58.79
8758;BME280;4415;42.152;24.744;2023-12-20T12:26:16;99116.81;;;12.36;60.18
8758;BME280;4415;42.152;24.744;2023-12-20T12:28:42;99107.81;;;12.19;61.58
8758;BME280;4415;42.152;24.744;2023-12-20T12:31:13;99105.16;;;12.36;60.98
8758;BME280;4415;42.152;24.744;2023-12-20T12:33:40;99099.41;;;12.29;61.44
8758;BME280;4415;42.152;24.744;2023-12-20T12:36:07;99101.84;;;12.39;61.47
8758;BME280;4415;42.152;24.744;2023-12-20T12:38:33;99107.06;;;12.35;61.52
8758;BME280;4415;42.152;24.744;2023-12-20T12:40:59;99096.69;;;12.29;62.18
8758;BME280;4415;42.152;24.744;2023-12-20T12:43:25;99076.19;;;12.36;62.06
8758;BME280;4415;42.152;24.744;2023-12-20T12:45:51;99083.03;;;12.34;62.82
8758;BME280;4415;42.152;24.744;2023-12-20T12:48:16;99091.41;;;12.24;63.93
8758;BME280;4415;42.152;24.744;2023-12-20T12:50:42;99076.75;;;12.25;64.17
8758;BME280;4415;42.152;24.744;2023-12-20T12:53:07;99071.00;;;12.57;63.04
8758;BME280;4415;42.152;24.744;2023-12-20T12:55:34;99080.94;;;12.70;62.43
8758;BME280;4415;42.152;24.744;2023-12-20T12:58:00;99073.72;;;12.57;62.94
8758;BME280;4415;42.152;24.744;2023-12-20T13:00:25;99074.88;;;12.73;63.14
8758;BME280;4415;42.152;24.744;2023-12-20T13:02:51;99078.13;;;12.44;64.30
8758;BME280;4415;42.152;24.744;2023-12-20T13:05:17;99079.97;;;12.66;64.71
8758;BME280;4415;42.152;24.744;2023-12-20T13:07:43;99070.66;;;12.50;65.50
8758;BME280;4415;42.152;24.744;2023-12-20T13:10:10;99073.50;;;12.45;66.69
8758;BME280;4415;42.152;24.744;2023-12-20T13:12:36;99075.97;;;12.63;66.10
8758;BME280;4415;42.152;24.744;2023-12-20T13:15:02;99063.97;;;12.16;67.84